createdAt,value
2023-10-07T00:02:15.435Z,82.29
2023-10-07T00:04:43.616Z,83.04
2023-10-07T00:07:11.756Z,83.35
2023-10-07T00:09:42.878Z,83.34
2023-10-07T00:12:17.680Z,83.42
2023-10-07T00:14:45.281Z,83.14
2023-10-07T00:17:19.586Z,82.86
2023-10-07T00:19:47.646Z,83.23
2023-10-07T00:22:20.483Z,82.98
2023-10-07T00:24:50.393Z,82.93
2023-10-07T00:27:31.468Z,82.52
2023-10-07T00:30:01.592Z,83.21
2023-10-07T00:32:34.333Z,83.14
2023-10-07T00:35:02.439Z,83.02
2023-10-07T00:37:35.482Z,83.27
2023-10-07T00:40:16.022Z,83.25
2023-10-07T00:42:48.415Z,83.32
2023-10-07T00:45:21.365Z,83.34
2023-10-07T00:47:51.178Z,82.94
2023-10-07T00:50:20.526Z,82.94
2023-10-07T00:52:55.813Z,83.02
2023-10-07T00:55:36.105Z,83.27
2023-10-07T00:58:18.839Z,83.23
2023-10-07T01:00:51.080Z,83.05
2023-10-07T01:03:19.136Z,83.75
2023-10-07T01:06:01.977Z,83.39
2023-10-07T01:08:36.986Z,83.72
2023-10-07T01:11:30.396Z,83.25
2023-10-07T01:14:08.130Z,83.47
2023-10-07T01:16:42.759Z,83.54
2023-10-07T01:19:14.809Z,83.46
2023-10-07T01:21:51.932Z,83.85
2023-10-07T01:24:46.823Z,83.74
2023-10-07T01:27:27.680Z,83.34
2023-10-07T01:30:01.672Z,83.62
2023-10-07T01:32:33.675Z,83.52
2023-10-07T01:35:22.842Z,83.44
2023-10-07T01:38:01.289Z,83.81
2023-10-07T01:40:43.419Z,83.69
2023-10-07T01:43:10.748Z,83.83
2023-10-07T01:45:41.628Z,83.98
2023-10-07T01:48:09.198Z,83.75
2023-10-07T01:50:41.291Z,83.99
2023-10-07T01:53:09.677Z,84.13
2023-10-07T01:55:45.299Z,84.06
2023-10-07T01:58:16.036Z,84.14
2023-10-07T02:00:44.071Z,84.20
2023-10-07T02:03:15.289Z,84.02
2023-10-07T02:05:44.359Z,84.65
2023-10-07T02:08:15.344Z,84.40
2023-10-07T02:10:44.049Z,84.26
2023-10-07T02:13:16.175Z,84.39
2023-10-07T02:15:43.979Z,84.62
2023-10-07T02:18:17.199Z,84.61
2023-10-07T02:20:45.681Z,84.29
2023-10-07T02:23:13.828Z,84.58
2023-10-07T02:25:42.025Z,84.49
2023-10-07T02:28:10.971Z,84.45
2023-10-07T02:30:40.676Z,84.46
2023-10-07T02:33:09.702Z,84.70
2023-10-07T02:35:38.338Z,84.47
2023-10-07T02:38:05.761Z,84.62
2023-10-07T02:40:38.151Z,84.66
2023-10-07T02:43:08.794Z,84.53
2023-10-07T02:45:46.538Z,84.84
2023-10-07T02:48:14.032Z,84.84
2023-10-07T02:50:43.480Z,84.59
2023-10-07T02:53:15.347Z,84.70
2023-10-07T02:55:56.363Z,84.55
2023-10-07T02:58:50.078Z,84.52
2023-10-07T03:01:26.788Z,84.48
2023-10-07T03:03:55.317Z,84.49
2023-10-07T03:06:29.489Z,84.88
2023-10-07T03:09:11.347Z,84.60
2023-10-07T03:11:49.934Z,84.47
2023-10-07T03:14:26.591Z,85.16
2023-10-07T03:17:01.465Z,84.90
2023-10-07T03:19:47.305Z,85.08
2023-10-07T03:22:17.081Z,84.73
2023-10-07T03:24:49.717Z,84.95
2023-10-07T03:27:27.174Z,84.99
2023-10-07T03:30:13.189Z,85.10
2023-10-07T03:32:58.011Z,84.90
2023-10-07T03:35:37.737Z,85.21
2023-10-07T03:38:09.828Z,84.94
2023-10-07T03:40:39.733Z,85.30
2023-10-07T03:43:10.294Z,85.12
2023-10-07T03:45:40.937Z,85.13
2023-10-07T03:48:24.605Z,85.13
2023-10-07T03:51:01.235Z,84.80
2023-10-07T03:53:33.372Z,85.07
2023-10-07T03:56:02.664Z,85.14
2023-10-07T03:58:30.451Z,84.99
2023-10-07T04:00:58.560Z,84.81
2023-10-07T04:03:27.251Z,84.88
2023-10-07T04:05:55.913Z,84.96
2023-10-07T04:08:23.294Z,84.75
2023-10-07T04:10:55.863Z,84.62
2023-10-07T04:13:23.250Z,84.52
2023-10-07T04:15:53.786Z,84.13
2023-10-07T04:18:36.233Z,84.31
2023-10-07T04:21:05.296Z,84.11
2023-10-07T04:23:33.176Z,84.29
2023-10-07T04:26:11.894Z,83.90
2023-10-07T04:28:42.837Z,84.22
2023-10-07T04:31:13.901Z,84.00
2023-10-07T04:33:42.515Z,84.26
2023-10-07T04:36:15.600Z,84.09
2023-10-07T04:38:55.406Z,84.18
2023-10-07T04:41:23.410Z,84.19
2023-10-07T04:43:52.060Z,84.39
2023-10-07T04:46:26.154Z,84.38
2023-10-07T04:48:58.247Z,84.71
2023-10-07T04:51:51.309Z,84.28
2023-10-07T04:54:22.274Z,84.46
2023-10-07T04:56:56.139Z,84.48
2023-10-07T04:59:24.231Z,84.31
2023-10-07T05:01:58.154Z,84.30
2023-10-07T05:04:26.252Z,84.47
2023-10-07T05:06:55.862Z,84.25
2023-10-07T05:09:23.410Z,84.78
2023-10-07T05:11:51.006Z,84.47
2023-10-07T05:14:19.340Z,83.88
2023-10-07T05:16:50.430Z,83.85
2023-10-07T05:19:24.026Z,83.90
2023-10-07T05:22:01.733Z,84.15
2023-10-07T05:24:29.831Z,84.14
2023-10-07T05:26:58.573Z,83.97
2023-10-07T05:29:26.015Z,83.59
2023-10-07T05:31:53.341Z,83.77
2023-10-07T05:34:20.974Z,83.80
2023-10-07T05:36:48.496Z,83.80
2023-10-07T05:39:18.858Z,83.65
2023-10-07T05:41:46.134Z,83.64
2023-10-07T05:44:16.010Z,83.51
2023-10-07T05:46:43.842Z,83.34
2023-10-07T05:49:11.909Z,83.49
2023-10-07T05:51:39.218Z,83.57
2023-10-07T05:54:07.093Z,83.25
2023-10-07T05:56:36.025Z,83.11
2023-10-07T05:59:03.580Z,82.90
2023-10-07T06:01:35.243Z,82.93
2023-10-07T06:04:02.961Z,81.80
2023-10-07T06:06:31.633Z,81.69
2023-10-07T06:09:01.827Z,81.57
2023-10-07T06:11:30.277Z,80.77
2023-10-07T06:14:00.753Z,80.59
2023-10-07T06:16:30.967Z,80.09
2023-10-07T06:19:00.208Z,80.18
2023-10-07T06:21:30.640Z,80.50
2023-10-07T06:24:01.359Z,80.48
2023-10-07T06:26:32.396Z,79.59
2023-10-07T06:29:08.044Z,79.49
2023-10-07T06:31:36.524Z,79.34
2023-10-07T06:34:14.048Z,78.28
2023-10-07T06:36:41.972Z,78.29
2023-10-07T06:39:09.684Z,78.00
2023-10-07T06:41:37.266Z,78.10
2023-10-07T06:44:10.848Z,78.34
2023-10-07T06:46:46.276Z,77.98
2023-10-07T06:49:20.136Z,78.98
2023-10-07T06:51:54.543Z,79.03
2023-10-07T06:54:24.931Z,80.21
2023-10-07T06:56:56.344Z,81.44
2023-10-07T06:59:29.736Z,82.73
2023-10-07T07:02:06.238Z,83.03
2023-10-07T07:04:36.964Z,83.97
2023-10-07T07:07:12.300Z,84.69
2023-10-07T07:09:47.981Z,85.31
2023-10-07T07:12:18.917Z,85.53
2023-10-07T07:14:52.375Z,85.90
2023-10-07T07:17:36.165Z,86.29
2023-10-07T07:20:12.285Z,86.92
2023-10-07T07:22:46.429Z,87.23
2023-10-07T07:25:27.738Z,87.23
2023-10-07T07:27:55.607Z,88.05
2023-10-07T07:30:31.622Z,88.58
2023-10-07T07:33:07.722Z,88.73
2023-10-07T07:35:40.742Z,88.97
2023-10-07T07:38:24.283Z,89.19
2023-10-07T07:40:53.917Z,89.71
2023-10-07T07:43:21.478Z,89.54
2023-10-07T07:45:57.635Z,89.77
2023-10-07T07:48:26.596Z,90.16
2023-10-07T07:50:56.865Z,89.99
2023-10-07T07:53:24.307Z,90.49
2023-10-07T07:55:56.460Z,90.72
2023-10-07T07:58:24.634Z,90.86
2023-10-07T08:01:07.841Z,91.04
2023-10-07T08:03:39.806Z,91.03
2023-10-07T08:06:07.810Z,91.13
2023-10-07T08:08:37.998Z,91.56
2023-10-07T08:11:06.887Z,91.52
2023-10-07T08:13:34.673Z,92.18
2023-10-07T08:16:06.540Z,92.33
2023-10-07T08:18:34.724Z,91.89
2023-10-07T08:21:08.428Z,92.48
2023-10-07T08:23:37.473Z,92.10
2023-10-07T08:26:11.734Z,92.64
2023-10-07T08:28:42.626Z,92.94
2023-10-07T08:31:18.714Z,93.19
2023-10-07T08:34:05.818Z,93.03
2023-10-07T08:36:33.226Z,93.32
2023-10-07T08:39:00.614Z,93.16
2023-10-07T08:41:29.523Z,93.20
2023-10-07T08:44:06.006Z,93.44
2023-10-07T08:46:40.894Z,93.52
2023-10-07T08:49:17.143Z,93.80
2023-10-07T08:51:45.973Z,93.58
2023-10-07T08:54:18.850Z,93.38
2023-10-07T08:56:55.978Z,93.90
2023-10-07T08:59:24.148Z,93.82
2023-10-07T09:02:01.524Z,93.90
2023-10-07T09:04:33.251Z,94.34
2023-10-07T09:07:02.087Z,93.73
2023-10-07T09:09:35.354Z,93.72
2023-10-07T09:12:09.595Z,93.94
2023-10-07T09:14:38.105Z,94.40
2023-10-07T09:17:10.794Z,94.29
2023-10-07T09:19:38.379Z,93.89
2023-10-07T09:22:12.070Z,93.67
2023-10-07T09:24:43.679Z,94.03
2023-10-07T09:27:14.625Z,93.88
2023-10-07T09:29:50.635Z,94.01
2023-10-07T09:32:23.792Z,94.67
2023-10-07T09:34:56.791Z,94.05
2023-10-07T09:37:33.988Z,94.36
2023-10-07T09:40:21.197Z,94.13
2023-10-07T09:42:59.354Z,95.15
2023-10-07T09:45:34.057Z,94.30
2023-10-07T09:48:06.965Z,94.93
2023-10-07T09:50:35.782Z,95.01
2023-10-07T09:53:22.340Z,94.81
2023-10-07T09:56:22.491Z,95.08
2023-10-07T09:59:15.357Z,94.94
2023-10-07T10:02:06.671Z,95.25
2023-10-07T10:04:52.818Z,95.19
2023-10-07T10:07:34.132Z,95.35
2023-10-07T10:10:07.923Z,95.01
2023-10-07T10:13:00.405Z,94.70
2023-10-07T10:15:34.852Z,94.99
2023-10-07T10:18:29.593Z,94.99
2023-10-07T10:21:10.849Z,94.80
2023-10-07T10:23:41.144Z,95.39
2023-10-07T10:26:22.725Z,95.38
2023-10-07T10:29:01.516Z,95.68
2023-10-07T10:31:33.671Z,95.06
2023-10-07T10:34:06.131Z,95.13
2023-10-07T10:36:39.739Z,95.33
2023-10-07T10:39:33.632Z,95.44
2023-10-07T10:42:16.550Z,96.00
2023-10-07T10:44:49.175Z,95.23
2023-10-07T10:47:20.148Z,95.95
2023-10-07T10:49:49.340Z,95.09
2023-10-07T10:52:20.257Z,95.16
2023-10-07T10:54:48.217Z,95.41
2023-10-07T10:57:21.028Z,95.14
2023-10-07T10:59:49.286Z,95.45
2023-10-07T11:02:18.916Z,95.45
2023-10-07T11:04:47.335Z,95.30
2023-10-07T11:07:15.698Z,95.76
2023-10-07T11:09:48.725Z,96.12
2023-10-07T11:12:18.169Z,95.82
2023-10-07T11:14:49.089Z,95.86
2023-10-07T11:17:17.403Z,96.16
2023-10-07T11:19:46.163Z,95.16
2023-10-07T11:22:15.066Z,95.59
2023-10-07T11:24:42.587Z,96.51
2023-10-07T11:27:15.412Z,96.16
2023-10-07T11:29:43.649Z,96.30
2023-10-07T11:32:14.267Z,95.59
2023-10-07T11:34:42.441Z,96.27
2023-10-07T11:37:14.597Z,95.75
2023-10-07T11:39:46.413Z,95.79
2023-10-07T11:42:19.149Z,96.37
2023-10-07T11:44:56.511Z,96.25
2023-10-07T11:47:26.088Z,96.73
2023-10-07T11:49:54.511Z,95.87
2023-10-07T11:52:21.922Z,95.93
2023-10-07T11:54:50.456Z,96.05
2023-10-07T11:57:20.262Z,95.73
2023-10-07T11:59:47.594Z,95.58
2023-10-07T12:02:16.864Z,96.42
2023-10-07T12:04:48.478Z,96.59
2023-10-07T12:07:17.851Z,96.07
2023-10-07T12:09:48.523Z,96.16
2023-10-07T12:12:18.905Z,96.66
2023-10-07T12:14:51.119Z,96.21
2023-10-07T12:17:18.487Z,96.13
2023-10-07T12:19:46.237Z,96.51
2023-10-07T12:22:14.741Z,95.95
2023-10-07T12:24:45.682Z,96.13
2023-10-07T12:27:14.193Z,95.93
2023-10-07T12:29:41.696Z,96.57
2023-10-07T12:32:11.505Z,96.88
2023-10-07T12:34:41.945Z,96.36
2023-10-07T12:37:09.612Z,96.75
2023-10-07T12:39:40.903Z,96.03
2023-10-07T12:42:08.693Z,96.14
2023-10-07T12:44:37.417Z,96.70
2023-10-07T12:47:10.155Z,96.73
2023-10-07T12:49:41.884Z,96.65
2023-10-07T12:52:10.487Z,96.76
2023-10-07T12:54:37.861Z,96.98
2023-10-07T12:57:05.224Z,96.44
2023-10-07T12:59:37.055Z,96.37
2023-10-07T13:02:05.128Z,96.63
2023-10-07T13:04:38.779Z,96.33
2023-10-07T13:07:15.382Z,97.00
2023-10-07T13:09:44.379Z,96.55
2023-10-07T13:12:17.076Z,96.79
2023-10-07T13:14:47.620Z,96.79
2023-10-07T13:17:15.737Z,97.15
2023-10-07T13:19:45.985Z,96.66
2023-10-07T13:22:14.934Z,97.03
2023-10-07T13:24:47.033Z,97.08
2023-10-07T13:27:16.551Z,96.80
2023-10-07T13:29:43.829Z,96.98
2023-10-07T13:32:11.148Z,97.14
2023-10-07T13:34:39.715Z,96.92
2023-10-07T13:37:07.582Z,96.70
2023-10-07T13:39:36.373Z,97.41
2023-10-07T13:42:10.850Z,97.24
2023-10-07T13:44:38.810Z,97.11
2023-10-07T13:47:09.058Z,96.85
2023-10-07T13:49:39.430Z,97.16
2023-10-07T13:52:10.572Z,97.23
2023-10-07T13:54:48.692Z,97.23
2023-10-07T13:57:23.929Z,97.37
2023-10-07T13:59:53.031Z,96.89
2023-10-07T14:02:23.585Z,96.93
2023-10-07T14:04:54.502Z,97.48
2023-10-07T14:07:22.099Z,96.96
2023-10-07T14:09:51.019Z,97.51
2023-10-07T14:12:18.712Z,97.09
2023-10-07T14:14:53.833Z,97.19
2023-10-07T14:17:21.747Z,97.50
2023-10-07T14:19:49.360Z,97.17
2023-10-07T14:22:18.899Z,97.57
2023-10-07T14:24:46.911Z,97.37
2023-10-07T14:27:15.687Z,97.62
2023-10-07T14:29:48.118Z,97.61
2023-10-07T14:32:15.726Z,97.30
2023-10-07T14:34:43.128Z,97.09
2023-10-07T14:37:11.755Z,97.30
2023-10-07T14:39:55.667Z,97.41
2023-10-07T14:42:27.094Z,97.76
2023-10-07T14:44:56.435Z,97.13
2023-10-07T14:47:25.654Z,97.36
2023-10-07T14:49:53.442Z,97.35
2023-10-07T14:52:21.667Z,97.31
2023-10-07T14:54:49.146Z,97.39
2023-10-07T14:57:19.475Z,97.77
2023-10-07T14:59:48.376Z,97.56
2023-10-07T15:02:19.935Z,97.47
2023-10-07T15:04:51.951Z,97.58
2023-10-07T15:07:21.890Z,97.50
2023-10-07T15:09:50.089Z,97.60
2023-10-07T15:12:17.406Z,97.58
2023-10-07T15:14:44.910Z,97.51
2023-10-07T15:17:13.748Z,97.39
2023-10-07T15:19:43.283Z,97.41
2023-10-07T15:22:10.649Z,97.57
2023-10-07T15:24:38.479Z,97.64
2023-10-07T15:27:06.164Z,97.55
2023-10-07T15:29:35.011Z,97.71
2023-10-07T15:32:03.806Z,97.79
2023-10-07T15:34:32.757Z,97.87
2023-10-07T15:37:00.485Z,97.66
2023-10-07T15:39:33.935Z,97.57
2023-10-07T15:42:03.619Z,97.63
2023-10-07T15:44:31.212Z,98.05
2023-10-07T15:46:59.605Z,97.79
2023-10-07T15:49:27.228Z,97.76
2023-10-07T15:51:56.892Z,97.68
2023-10-07T15:54:24.352Z,97.65
2023-10-07T15:56:52.094Z,97.82
2023-10-07T15:59:20.344Z,97.81
2023-10-07T16:01:50.937Z,97.64
2023-10-07T16:04:19.226Z,97.89
2023-10-07T16:06:50.263Z,97.83
2023-10-07T16:09:20.004Z,97.81
2023-10-07T16:11:50.937Z,98.00
2023-10-07T16:14:20.537Z,97.93
2023-10-07T16:16:49.741Z,98.03
2023-10-07T16:19:20.270Z,97.96
2023-10-07T16:21:48.528Z,97.74
2023-10-07T16:24:18.044Z,98.18
2023-10-07T16:26:47.234Z,98.22
2023-10-07T16:29:15.112Z,97.91
2023-10-07T16:31:45.490Z,97.95
2023-10-07T16:34:13.365Z,97.75
2023-10-07T16:36:41.067Z,97.95
2023-10-07T16:39:10.339Z,98.15
2023-10-07T16:41:38.721Z,97.64
2023-10-07T16:44:08.218Z,97.47
2023-10-07T16:46:36.118Z,97.27
2023-10-07T16:49:04.303Z,97.45
2023-10-07T16:51:32.140Z,97.39
2023-10-07T16:53:59.783Z,97.73
2023-10-07T16:56:28.498Z,97.61
2023-10-07T16:58:56.353Z,97.56
2023-10-07T17:01:25.917Z,97.79
2023-10-07T17:03:53.520Z,97.64
2023-10-07T17:06:21.519Z,97.56
2023-10-07T17:08:49.133Z,97.73
2023-10-07T17:11:19.507Z,97.94
2023-10-07T17:13:47.977Z,97.78
2023-10-07T17:16:19.806Z,97.88
2023-10-07T17:18:51.733Z,98.05
2023-10-07T17:21:25.390Z,98.00
2023-10-07T17:23:54.040Z,97.89
2023-10-07T17:26:22.412Z,97.91
2023-10-07T17:28:50.081Z,98.05
2023-10-07T17:31:18.067Z,98.04
2023-10-07T17:33:46.326Z,97.99
2023-10-07T17:36:15.334Z,98.22
2023-10-07T17:38:43.515Z,97.74
2023-10-07T17:41:11.697Z,97.94
2023-10-07T17:43:39.974Z,98.09
2023-10-07T17:46:08.045Z,98.19
2023-10-07T17:48:36.523Z,98.10
2023-10-07T17:51:04.571Z,97.98
2023-10-07T17:53:34.467Z,98.02
2023-10-07T17:56:06.241Z,98.17
2023-10-07T17:58:34.477Z,98.03
2023-10-07T18:01:04.490Z,98.22
2023-10-07T18:03:32.260Z,98.03
2023-10-07T18:06:07.226Z,98.09
2023-10-07T18:08:36.747Z,98.11
2023-10-07T18:11:06.640Z,98.21
2023-10-07T18:13:36.179Z,98.02
2023-10-07T18:16:04.435Z,98.15
2023-10-07T18:18:32.684Z,98.12
2023-10-07T18:21:01.367Z,98.22
2023-10-07T18:23:30.499Z,98.29
2023-10-07T18:26:00.347Z,98.18
2023-10-07T18:28:27.869Z,98.42
2023-10-07T18:30:59.414Z,98.14
2023-10-07T18:33:27.984Z,98.03
2023-10-07T18:35:57.643Z,97.90
2023-10-07T18:38:25.667Z,98.12
2023-10-07T18:40:53.792Z,98.15
2023-10-07T18:43:22.930Z,98.06
2023-10-07T18:45:53.673Z,98.16
2023-10-07T18:48:21.615Z,98.03
2023-10-07T18:50:49.730Z,98.05
2023-10-07T18:53:17.579Z,97.88
2023-10-07T18:55:45.781Z,97.93
2023-10-07T18:58:14.661Z,98.09
2023-10-07T19:00:50.550Z,97.98
2023-10-07T19:03:19.233Z,97.85
2023-10-07T19:05:47.532Z,98.00
2023-10-07T19:08:16.212Z,98.04
2023-10-07T19:10:47.097Z,98.06
2023-10-07T19:13:15.092Z,97.86
2023-10-07T19:15:44.396Z,97.80
2023-10-07T19:18:12.500Z,97.70
2023-10-07T19:20:48.600Z,97.45
2023-10-07T19:23:18.950Z,97.67
2023-10-07T19:25:50.266Z,97.88
2023-10-07T19:28:18.008Z,97.91
2023-10-07T19:30:47.358Z,97.66
2023-10-07T19:33:15.993Z,97.64
2023-10-07T19:35:46.641Z,97.75
2023-10-07T19:38:14.598Z,97.61
2023-10-07T19:40:43.090Z,97.62
2023-10-07T19:43:10.795Z,97.54
2023-10-07T19:45:38.603Z,97.46
2023-10-07T19:48:09.308Z,97.43
2023-10-07T19:50:37.131Z,97.19
2023-10-07T19:53:05.014Z,97.08
2023-10-07T19:55:32.575Z,97.10
2023-10-07T19:57:59.885Z,96.80
2023-10-07T20:00:28.473Z,96.77
2023-10-07T20:05:42.670Z,96.22
2023-10-07T20:08:13.284Z,95.93
2023-10-07T20:10:45.896Z,95.48
2023-10-07T20:13:13.474Z,95.10
2023-10-07T20:15:42.963Z,94.96
2023-10-07T20:18:10.281Z,94.12
2023-10-07T20:20:37.831Z,93.85
2023-10-07T20:23:06.993Z,93.36
2023-10-07T20:25:34.616Z,91.26
2023-10-07T20:28:02.049Z,89.91
2023-10-07T20:30:29.392Z,88.32
2023-10-07T20:32:57.560Z,87.51
2023-10-07T20:35:26.362Z,87.22
2023-10-07T20:37:53.732Z,86.74
2023-10-07T20:40:22.698Z,86.29
2023-10-07T20:42:50.422Z,86.26
2023-10-07T20:45:17.899Z,86.24
2023-10-07T20:47:45.403Z,85.84
2023-10-07T20:50:13.141Z,85.99
2023-10-07T20:52:40.436Z,85.53
2023-10-07T20:55:08.482Z,86.10
2023-10-07T20:57:37.256Z,86.25
2023-10-07T21:00:09.738Z,86.69
2023-10-07T21:02:38.409Z,86.50
2023-10-07T21:05:06.784Z,86.51
2023-10-07T21:07:34.511Z,86.45
2023-10-07T21:10:02.087Z,86.51
2023-10-07T21:12:30.913Z,86.02
2023-10-07T21:14:59.656Z,85.10
2023-10-07T21:17:27.084Z,84.48
2023-10-07T21:19:54.671Z,84.08
2023-10-07T21:22:22.083Z,83.32
2023-10-07T21:24:49.461Z,82.66
2023-10-07T21:27:17.807Z,81.88
2023-10-07T21:29:45.133Z,80.85
2023-10-07T21:32:13.920Z,80.68
2023-10-07T21:34:41.830Z,80.73
2023-10-07T21:37:09.188Z,81.20
2023-10-07T21:39:36.579Z,81.88
2023-10-07T21:42:03.932Z,81.82
2023-10-07T21:44:35.007Z,81.14
2023-10-07T21:47:02.715Z,81.66
2023-10-07T21:49:31.532Z,82.04
2023-10-07T21:51:58.794Z,81.74
2023-10-07T21:54:26.088Z,82.56
2023-10-07T21:56:55.162Z,82.38
2023-10-07T21:59:22.691Z,82.93
2023-10-07T22:01:50.337Z,82.88
2023-10-07T22:04:17.784Z,82.77
2023-10-07T22:06:47.602Z,83.25
2023-10-07T22:09:19.405Z,83.38
2023-10-07T22:11:47.138Z,83.64
2023-10-07T22:14:14.435Z,83.91
2023-10-07T22:16:44.142Z,84.03
2023-10-07T22:19:11.647Z,83.86
2023-10-07T22:21:39.443Z,84.05
2023-10-07T22:24:09.988Z,84.43
2023-10-07T22:26:40.565Z,84.00
2023-10-07T22:29:07.908Z,84.17
2023-10-07T22:31:37.161Z,84.11
2023-10-07T22:34:07.689Z,84.07
2023-10-07T22:36:39.318Z,84.10
2023-10-07T22:39:21.120Z,83.92
2023-10-07T22:41:56.665Z,84.03
2023-10-07T22:44:24.214Z,84.07
2023-10-07T22:46:51.864Z,83.71
2023-10-07T22:49:24.307Z,83.62
2023-10-07T22:51:54.889Z,83.85
2023-10-07T22:54:32.622Z,83.42
2023-10-07T22:57:00.894Z,83.89
2023-10-07T22:59:28.273Z,83.85
2023-10-07T23:01:58.940Z,83.78
2023-10-07T23:04:32.290Z,83.49
2023-10-07T23:07:24.401Z,83.85
2023-10-07T23:10:00.585Z,83.37
2023-10-07T23:12:31.932Z,82.98
2023-10-07T23:15:00.388Z,82.79
2023-10-07T23:17:32.743Z,82.32
2023-10-07T23:20:09.111Z,81.78
2023-10-07T23:22:41.438Z,81.59
2023-10-07T23:25:22.194Z,81.46
2023-10-07T23:27:52.480Z,81.49
2023-10-07T23:30:30.220Z,81.34
2023-10-07T23:33:00.885Z,80.90
2023-10-07T23:35:33.718Z,81.33
2023-10-07T23:38:19.535Z,81.20
2023-10-07T23:40:57.926Z,81.06
2023-10-07T23:43:28.112Z,80.22
2023-10-07T23:45:55.710Z,80.90
2023-10-07T23:48:23.180Z,80.64
2023-10-07T23:50:58.643Z,80.36
2023-10-07T23:53:32.155Z,80.34
2023-10-07T23:56:13.896Z,80.40
2023-10-07T23:58:52.149Z,79.72
